sensor_id;sensor_type;location;lat;lon;timestamp;pressure;altitude;pressure_sealevel;temperature;humidity
64354;BME280;50681;53.334;-6.536;2023-08-07T00:01:42;101579.72;;;24.00;100.00
64354;BME280;50681;53.334;-6.536;2023-08-07T00:04:08;101581.50;;;24.08;100.00
64354;BME280;50681;53.334;-6.536;2023-08-07T00:06:33;101580.06;;;24.14;100.00
64354;BME280;50681;53.334;-6.536;2023-08-07T00:08:59;101583.28;;;24.16;100.00
64354;BME280;50681;53.334;-6.536;2023-08-07T00:11:24;101587.81;;;24.25;100.00
64354;BME280;50681;53.334;-6.536;2023-08-07T00:13:50;101576.16;;;24.15;100.00
64354;BME280;50681;53.334;-6.536;2023-08-07T00:16:15;101567.66;;;23.92;100.00
64354;BME280;50681;53.334;-6.536;2023-08-07T00:18:41;101573.81;;;23.85;100.00
64354;BME280;50681;53.334;-6.536;2023-08-07T00:21:06;101566.25;;;23.98;100.00
64354;BME280;50681;53.334;-6.536;2023-08-07T00:23:32;101566.44;;;24.05;100.00
64354;BME280;50681;53.334;-6.536;2023-08-07T00:25:57;101580.06;;;24.14;100.00
64354;BME280;50681;53.334;-6.536;2023-08-07T00:28:23;101573.81;;;23.85;100.00
64354;BME280;50681;53.334;-6.536;2023-08-07T00:30:48;101572.22;;;23.84;100.00
64354;BME280;50681;53.334;-6.536;2023-08-07T00:33:13;101580.13;;;23.54;100.00
64354;BME280;50681;53.334;-6.536;2023-08-07T00:35:39;101559.94;;;23.66;100.00
64354;BME280;50681;53.334;-6.536;2023-08-07T00:38:04;101571.19;;;23.16;100.00
64354;BME280;50681;53.334;-6.536;2023-08-07T00:40:37;101564.47;;;23.74;100.00
64354;BME280;50681;53.334;-6.536;2023-08-07T00:43:03;101570.03;;;23.17;100.00
64354;BME280;50681;53.334;-6.536;2023-08-07T00:45:29;101563.03;;;23.32;100.00
64354;BME280;50681;53.334;-6.536;2023-08-07T00:47:55;101568.91;;;23.18;100.00
64354;BME280;50681;53.334;-6.536;2023-08-07T00:50:20;101567.00;;;23.06;100.00
64354;BME280;50681;53.334;-6.536;2023-08-07T00:52:46;101568.69;;;22.82;100.00
64354;BME280;50681;53.334;-6.536;2023-08-07T00:55:11;101571.91;;;22.84;100.00
64354;BME280;50681;53.334;-6.536;2023-08-07T00:57:37;101568.38;;;24.92;100.00
64354;BME280;50681;53.334;-6.536;2023-08-07T01:00:02;101569.81;;;27.41;78.14
64354;BME280;50681;53.334;-6.536;2023-08-07T01:02:28;101571.53;;;26.23;81.58
64354;BME280;50681;53.334;-6.536;2023-08-07T01:04:54;101581.50;;;23.19;100.00
64354;BME280;50681;53.334;-6.536;2023-08-07T01:07:19;101564.13;;;27.26;76.72
64354;BME280;50681;53.334;-6.536;2023-08-07T01:09:45;101570.78;;;28.71;66.57
64354;BME280;50681;53.334;-6.536;2023-08-07T01:12:19;101555.84;;;29.12;67.68
64354;BME280;50681;53.334;-6.536;2023-08-07T01:14:56;101564.59;;;29.14;67.06
64354;BME280;50681;53.334;-6.536;2023-08-07T01:17:25;101558.41;;;28.61;62.29
64354;BME280;50681;53.334;-6.536;2023-08-07T01:19:51;101564.09;;;28.83;61.48
64354;BME280;50681;53.334;-6.536;2023-08-07T01:22:21;101553.16;;;28.42;61.42
64354;BME280;50681;53.334;-6.536;2023-08-07T01:24:50;101552.34;;;28.38;62.01
64354;BME280;50681;53.334;-6.536;2023-08-07T01:27:23;101556.22;;;29.00;62.06
64354;BME280;50681;53.334;-6.536;2023-08-07T01:30:16;101558.41;;;27.95;65.76
64354;BME280;50681;53.334;-6.536;2023-08-07T01:35:23;101537.25;;;28.31;60.40
64354;BME280;50681;53.334;-6.536;2023-08-07T01:37:51;101544.47;;;28.47;59.30
64354;BME280;50681;53.334;-6.536;2023-08-07T01:40:19;101540.28;;;28.82;58.74
64354;BME280;50681;53.334;-6.536;2023-08-07T01:42:46;101545.22;;;28.40;57.79
64354;BME280;50681;53.334;-6.536;2023-08-07T01:45:12;101543.47;;;28.14;58.17
64354;BME280;50681;53.334;-6.536;2023-08-07T01:47:38;101540.59;;;27.51;58.50
64354;BME280;50681;53.334;-6.536;2023-08-07T01:50:04;101538.78;;;28.22;58.58
64354;BME280;50681;53.334;-6.536;2023-08-07T01:52:30;101527.69;;;28.22;57.34
64354;BME280;50681;53.334;-6.536;2023-08-07T01:54:55;101528.94;;;28.39;56.83
64354;BME280;50681;53.334;-6.536;2023-08-07T01:57:21;101525.09;;;27.95;57.03
64354;BME280;50681;53.334;-6.536;2023-08-07T01:59:46;101524.97;;;28.40;56.40
64354;BME280;50681;53.334;-6.536;2023-08-07T02:02:11;101534.44;;;27.72;57.04
64354;BME280;50681;53.334;-6.536;2023-08-07T02:04:37;101521.06;;;26.98;59.47
64354;BME280;50681;53.334;-6.536;2023-08-07T02:07:02;101518.53;;;27.65;58.16
64354;BME280;50681;53.334;-6.536;2023-08-07T02:09:28;101518.38;;;27.06;59.90
64354;BME280;50681;53.334;-6.536;2023-08-07T02:11:53;101519.06;;;26.99;60.00
64354;BME280;50681;53.334;-6.536;2023-08-07T02:14:19;101511.03;;;27.24;59.17
64354;BME280;50681;53.334;-6.536;2023-08-07T02:16:44;101513.94;;;27.01;59.19
64354;BME280;50681;53.334;-6.536;2023-08-07T02:19:10;101509.31;;;27.12;59.33
64354;BME280;50681;53.334;-6.536;2023-08-07T02:21:35;101508.53;;;26.78;60.39
64354;BME280;50681;53.334;-6.536;2023-08-07T02:24:00;101503.06;;;27.23;59.54
64354;BME280;50681;53.334;-6.536;2023-08-07T02:26:26;101496.84;;;25.50;63.16
64354;BME280;50681;53.334;-6.536;2023-08-07T02:28:51;101497.41;;;26.13;63.19
64354;BME280;50681;53.334;-6.536;2023-08-07T02:31:17;101492.25;;;25.38;65.13
64354;BME280;50681;53.334;-6.536;2023-08-07T02:33:42;101491.78;;;25.56;64.41
64354;BME280;50681;53.334;-6.536;2023-08-07T02:36:07;101488.25;;;25.82;63.88
64354;BME280;50681;53.334;-6.536;2023-08-07T02:38:33;101486.25;;;25.32;66.15
64354;BME280;50681;53.334;-6.536;2023-08-07T02:40:59;101487.75;;;24.12;70.34
64354;BME280;50681;53.334;-6.536;2023-08-07T02:43:24;101479.28;;;23.85;75.41
64354;BME280;50681;53.334;-6.536;2023-08-07T02:45:51;101486.47;;;23.89;86.40
64354;BME280;50681;53.334;-6.536;2023-08-07T02:48:16;101490.03;;;22.97;83.69
64354;BME280;50681;53.334;-6.536;2023-08-07T02:50:42;101505.59;;;22.24;90.70
64354;BME280;50681;53.334;-6.536;2023-08-07T02:53:08;101497.44;;;22.81;89.07
64354;BME280;50681;53.334;-6.536;2023-08-07T02:55:33;101504.34;;;22.21;96.26
64354;BME280;50681;53.334;-6.536;2023-08-07T02:57:58;101504.69;;;23.01;88.46
64354;BME280;50681;53.334;-6.536;2023-08-07T03:00:24;101502.25;;;22.84;89.99
64354;BME280;50681;53.334;-6.536;2023-08-07T03:02:49;101516.72;;;22.81;91.83
64354;BME280;50681;53.334;-6.536;2023-08-07T03:05:15;101503.84;;;23.13;90.27
64354;BME280;50681;53.334;-6.536;2023-08-07T03:07:40;101507.09;;;24.67;82.72
64354;BME280;50681;53.334;-6.536;2023-08-07T03:10:06;101504.94;;;25.19;77.21
64354;BME280;50681;53.334;-6.536;2023-08-07T03:12:32;101512.84;;;25.87;73.29
64354;BME280;50681;53.334;-6.536;2023-08-07T03:14:58;101498.78;;;23.60;80.05
64354;BME280;50681;53.334;-6.536;2023-08-07T03:17:23;101494.84;;;22.72;89.56
64354;BME280;50681;53.334;-6.536;2023-08-07T03:19:55;101502.84;;;22.11;100.00
64354;BME280;50681;53.334;-6.536;2023-08-07T03:22:21;101502.59;;;23.11;89.95
64354;BME280;50681;53.334;-6.536;2023-08-07T03:24:47;101497.03;;;23.23;90.88
64354;BME280;50681;53.334;-6.536;2023-08-07T03:27:13;101491.72;;;23.30;94.50
64354;BME280;50681;53.334;-6.536;2023-08-07T03:29:38;101490.66;;;23.07;93.08
64354;BME280;50681;53.334;-6.536;2023-08-07T03:32:04;101491.59;;;22.82;93.08
64354;BME280;50681;53.334;-6.536;2023-08-07T03:34:29;101483.91;;;23.32;91.45
64354;BME280;50681;53.334;-6.536;2023-08-07T03:36:54;101480.13;;;22.80;95.76
64354;BME280;50681;53.334;-6.536;2023-08-07T03:39:20;101491.28;;;22.71;98.39
64354;BME280;50681;53.334;-6.536;2023-08-07T03:41:45;101496.28;;;22.53;100.00
64354;BME280;50681;53.334;-6.536;2023-08-07T03:44:11;101483.56;;;22.49;99.62
64354;BME280;50681;53.334;-6.536;2023-08-07T03:46:36;101482.84;;;21.40;100.00
64354;BME280;50681;53.334;-6.536;2023-08-07T03:49:02;101476.47;;;22.23;100.00
64354;BME280;50681;53.334;-6.536;2023-08-07T03:51:27;101467.91;;;22.12;100.00
64354;BME280;50681;53.334;-6.536;2023-08-07T03:53:54;101474.44;;;22.07;100.00
64354;BME280;50681;53.334;-6.536;2023-08-07T03:56:19;101477.47;;;22.43;100.00
64354;BME280;50681;53.334;-6.536;2023-08-07T03:58:45;101476.69;;;22.30;100.00
64354;BME280;50681;53.334;-6.536;2023-08-07T04:01:11;101471.31;;;22.74;100.00
64354;BME280;50681;53.334;-6.536;2023-08-07T04:03:36;101479.59;;;23.19;98.05
64354;BME280;50681;53.334;-6.536;2023-08-07T04:06:02;101469.34;;;23.03;97.45
64354;BME280;50681;53.334;-6.536;2023-08-07T04:08:30;101473.25;;;23.31;95.09
64354;BME280;50681;53.334;-6.536;2023-08-07T04:11:05;101469.94;;;23.25;100.00
64354;BME280;50681;53.334;-6.536;2023-08-07T04:13:31;101474.19;;;23.23;99.51
64354;BME280;50681;53.334;-6.536;2023-08-07T04:15:57;101471.38;;;22.90;99.71
64354;BME280;50681;53.334;-6.536;2023-08-07T04:18:23;101470.69;;;23.10;98.83
64354;BME280;50681;53.334;-6.536;2023-08-07T04:20:52;101464.81;;;22.67;100.00
64354;BME280;50681;53.334;-6.536;2023-08-07T04:23:18;101472.09;;;23.48;94.53
64354;BME280;50681;53.334;-6.536;2023-08-07T04:25:45;101468.78;;;23.58;95.43
64354;BME280;50681;53.334;-6.536;2023-08-07T04:28:10;101486.13;;;22.04;100.00
64354;BME280;50681;53.334;-6.536;2023-08-07T04:30:35;101475.63;;;23.32;96.61
64354;BME280;50681;53.334;-6.536;2023-08-07T04:33:01;101477.59;;;23.03;98.15
64354;BME280;50681;53.334;-6.536;2023-08-07T04:35:27;101481.31;;;23.40;96.94
64354;BME280;50681;53.334;-6.536;2023-08-07T04:37:53;101491.28;;;22.18;100.00
64354;BME280;50681;53.334;-6.536;2023-08-07T04:40:18;101485.41;;;22.32;100.00
64354;BME280;50681;53.334;-6.536;2023-08-07T04:42:44;101482.84;;;22.52;100.00
64354;BME280;50681;53.334;-6.536;2023-08-07T04:45:09;101465.31;;;22.56;100.00
64354;BME280;50681;53.334;-6.536;2023-08-07T04:47:35;101488.28;;;22.48;100.00
64354;BME280;50681;53.334;-6.536;2023-08-07T04:50:01;101470.94;;;23.04;100.00
64354;BME280;50681;53.334;-6.536;2023-08-07T04:52:26;101472.06;;;22.59;100.00
64354;BME280;50681;53.334;-6.536;2023-08-07T04:54:51;101469.16;;;22.14;100.00
64354;BME280;50681;53.334;-6.536;2023-08-07T04:57:17;101477.34;;;22.52;100.00
64354;BME280;50681;53.334;-6.536;2023-08-07T04:59:42;101467.44;;;22.22;100.00
64354;BME280;50681;53.334;-6.536;2023-08-07T05:02:08;101460.81;;;22.64;100.00
64354;BME280;50681;53.334;-6.536;2023-08-07T05:04:33;101473.06;;;22.67;100.00
64354;BME280;50681;53.334;-6.536;2023-08-07T05:06:59;101467.94;;;22.40;100.00
64354;BME280;50681;53.334;-6.536;2023-08-07T05:09:24;101475.06;;;22.41;100.00
64354;BME280;50681;53.334;-6.536;2023-08-07T05:11:50;101462.75;;;22.92;100.00
64354;BME280;50681;53.334;-6.536;2023-08-07T05:14:15;101465.38;;;23.17;100.00
64354;BME280;50681;53.334;-6.536;2023-08-07T05:16:40;101457.22;;;23.37;99.98
64354;BME280;50681;53.334;-6.536;2023-08-07T05:19:06;101452.16;;;22.78;100.00
64354;BME280;50681;53.334;-6.536;2023-08-07T05:21:31;101457.06;;;22.56;100.00
64354;BME280;50681;53.334;-6.536;2023-08-07T05:23:57;101452.13;;;22.50;100.00
64354;BME280;50681;53.334;-6.536;2023-08-07T05:26:22;101460.44;;;23.39;100.00
64354;BME280;50681;53.334;-6.536;2023-08-07T05:28:48;101468.22;;;22.23;100.00
64354;BME280;50681;53.334;-6.536;2023-08-07T05:31:13;101464.66;;;22.47;100.00
64354;BME280;50681;53.334;-6.536;2023-08-07T05:33:38;101470.09;;;21.94;100.00
64354;BME280;50681;53.334;-6.536;2023-08-07T05:36:04;101470.25;;;22.51;100.00
64354;BME280;50681;53.334;-6.536;2023-08-07T05:38:31;101460.16;;;22.83;100.00
64354;BME280;50681;53.334;-6.536;2023-08-07T05:40:57;101468.34;;;22.67;100.00
64354;BME280;50681;53.334;-6.536;2023-08-07T05:43:22;101469.66;;;22.57;100.00
64354;BME280;50681;53.334;-6.536;2023-08-07T05:45:48;101468.25;;;21.85;100.00
64354;BME280;50681;53.334;-6.536;2023-08-07T05:48:14;101467.94;;;22.53;100.00
64354;BME280;50681;53.334;-6.536;2023-08-07T05:50:41;101463.53;;;22.23;100.00
64354;BME280;50681;53.334;-6.536;2023-08-07T05:53:07;101457.03;;;23.13;100.00
64354;BME280;50681;53.334;-6.536;2023-08-07T05:55:33;101460.50;;;23.26;100.00
64354;BME280;50681;53.334;-6.536;2023-08-07T05:57:59;101466.97;;;23.18;100.00
64354;BME280;50681;53.334;-6.536;2023-08-07T06:00:24;101449.88;;;22.96;100.00
64354;BME280;50681;53.334;-6.536;2023-08-07T06:02:50;101465.50;;;23.37;100.00
64354;BME280;50681;53.334;-6.536;2023-08-07T06:05:15;101467.25;;;22.56;100.00
64354;BME280;50681;53.334;-6.536;2023-08-07T06:07:41;101473.25;;;22.45;100.00
64354;BME280;50681;53.334;-6.536;2023-08-07T06:10:07;101457.94;;;23.66;100.00
64354;BME280;50681;53.334;-6.536;2023-08-07T06:12:33;101450.00;;;23.80;100.00
64354;BME280;50681;53.334;-6.536;2023-08-07T06:14:58;101454.06;;;24.58;99.75
64354;BME280;50681;53.334;-6.536;2023-08-07T06:17:24;101447.09;;;24.44;98.80
64354;BME280;50681;53.334;-6.536;2023-08-07T06:19:49;101451.44;;;24.26;100.00
64354;BME280;50681;53.334;-6.536;2023-08-07T06:22:15;101441.81;;;24.00;100.00
64354;BME280;50681;53.334;-6.536;2023-08-07T06:24:40;101446.59;;;24.03;100.00
64354;BME280;50681;53.334;-6.536;2023-08-07T06:27:05;101444.72;;;23.91;100.00
64354;BME280;50681;53.334;-6.536;2023-08-07T06:29:31;101451.88;;;24.47;100.00
64354;BME280;50681;53.334;-6.536;2023-08-07T06:31:56;101447.00;;;24.60;98.86
64354;BME280;50681;53.334;-6.536;2023-08-07T06:34:22;101452.59;;;24.25;99.64
64354;BME280;50681;53.334;-6.536;2023-08-07T06:36:47;101451.22;;;24.54;99.69
64354;BME280;50681;53.334;-6.536;2023-08-07T06:39:13;101453.91;;;24.70;97.78
64354;BME280;50681;53.334;-6.536;2023-08-07T06:41:38;101454.31;;;23.97;100.00
64354;BME280;50681;53.334;-6.536;2023-08-07T06:44:04;101447.94;;;24.88;97.86
64354;BME280;50681;53.334;-6.536;2023-08-07T06:46:30;101448.38;;;24.90;97.61
64354;BME280;50681;53.334;-6.536;2023-08-07T06:48:55;101448.69;;;24.65;98.52
64354;BME280;50681;53.334;-6.536;2023-08-07T06:51:21;101449.16;;;24.51;100.00
64354;BME280;50681;53.334;-6.536;2023-08-07T06:53:46;101438.34;;;25.01;97.94
64354;BME280;50681;53.334;-6.536;2023-08-07T06:56:11;101437.78;;;24.72;100.00
64354;BME280;50681;53.334;-6.536;2023-08-07T06:58:37;101443.28;;;24.92;100.00
64354;BME280;50681;53.334;-6.536;2023-08-07T07:01:02;101440.03;;;23.91;100.00
64354;BME280;50681;53.334;-6.536;2023-08-07T07:03:28;101445.19;;;24.48;100.00
64354;BME280;50681;53.334;-6.536;2023-08-07T07:05:53;101438.13;;;24.90;100.00
64354;BME280;50681;53.334;-6.536;2023-08-07T07:08:18;101435.22;;;24.24;100.00
64354;BME280;50681;53.334;-6.536;2023-08-07T07:10:44;101432.25;;;23.97;100.00
64354;BME280;50681;53.334;-6.536;2023-08-07T07:13:09;101436.78;;;25.04;99.86
64354;BME280;50681;53.334;-6.536;2023-08-07T07:15:35;101432.13;;;23.74;100.00
64354;BME280;50681;53.334;-6.536;2023-08-07T07:18:01;101435.88;;;23.82;100.00
64354;BME280;50681;53.334;-6.536;2023-08-07T07:20:27;101444.03;;;25.59;99.80
64354;BME280;50681;53.334;-6.536;2023-08-07T07:22:52;101442.25;;;23.86;100.00
64354;BME280;50681;53.334;-6.536;2023-08-07T07:25:18;101450.53;;;25.00;100.00
64354;BME280;50681;53.334;-6.536;2023-08-07T07:27:43;101455.75;;;25.75;100.00
64354;BME280;50681;53.334;-6.536;2023-08-07T07:30:09;101461.38;;;24.70;100.00
64354;BME280;50681;53.334;-6.536;2023-08-07T07:32:34;101457.88;;;25.35;100.00
64354;BME280;50681;53.334;-6.536;2023-08-07T07:35:00;101464.00;;;24.82;100.00
64354;BME280;50681;53.334;-6.536;2023-08-07T07:37:26;101454.75;;;24.15;100.00
64354;BME280;50681;53.334;-6.536;2023-08-07T07:39:51;101460.50;;;24.26;100.00
64354;BME280;50681;53.334;-6.536;2023-08-07T07:42:16;101461.53;;;24.77;100.00
64354;BME280;50681;53.334;-6.536;2023-08-07T07:44:42;101459.28;;;23.40;100.00
64354;BME280;50681;53.334;-6.536;2023-08-07T07:47:08;101453.38;;;23.89;100.00
64354;BME280;50681;53.334;-6.536;2023-08-07T07:49:33;101448.09;;;24.95;100.00
64354;BME280;50681;53.334;-6.536;2023-08-07T07:51:59;101443.50;;;24.44;100.00
64354;BME280;50681;53.334;-6.536;2023-08-07T07:54:24;101450.91;;;24.20;100.00
64354;BME280;50681;53.334;-6.536;2023-08-07T07:56:50;101448.28;;;24.27;100.00
64354;BME280;50681;53.334;-6.536;2023-08-07T07:59:16;101451.84;;;25.06;100.00
64354;BME280;50681;53.334;-6.536;2023-08-07T08:01:42;101448.34;;;25.09;100.00
64354;BME280;50681;53.334;-6.536;2023-08-07T08:04:07;101455.00;;;25.78;100.00
64354;BME280;50681;53.334;-6.536;2023-08-07T08:06:35;101435.88;;;24.96;100.00
64354;BME280;50681;53.334;-6.536;2023-08-07T08:09:01;101446.25;;;25.26;100.00
64354;BME280;50681;53.334;-6.536;2023-08-07T08:11:29;101449.03;;;24.83;100.00
64354;BME280;50681;53.334;-6.536;2023-08-07T08:13:55;101450.81;;;25.61;100.00
64354;BME280;50681;53.334;-6.536;2023-08-07T08:16:20;101443.69;;;25.87;100.00
64354;BME280;50681;53.334;-6.536;2023-08-07T08:18:45;101451.34;;;25.71;100.00
64354;BME280;50681;53.334;-6.536;2023-08-07T08:21:11;101449.31;;;24.58;100.00
64354;BME280;50681;53.334;-6.536;2023-08-07T08:23:36;101442.72;;;24.43;100.00
64354;BME280;50681;53.334;-6.536;2023-08-07T08:26:02;101446.34;;;24.67;100.00
64354;BME280;50681;53.334;-6.536;2023-08-07T08:28:27;101441.13;;;24.82;100.00
64354;BME280;50681;53.334;-6.536;2023-08-07T08:30:53;101438.09;;;25.33;100.00
64354;BME280;50681;53.334;-6.536;2023-08-07T08:33:18;101441.63;;;26.11;99.65
64354;BME280;50681;53.334;-6.536;2023-08-07T08:35:43;101434.03;;;25.50;100.00
64354;BME280;50681;53.334;-6.536;2023-08-07T08:38:09;101435.41;;;25.64;100.00
64354;BME280;50681;53.334;-6.536;2023-08-07T08:40:35;101429.44;;;25.58;100.00
64354;BME280;50681;53.334;-6.536;2023-08-07T08:43:04;101426.97;;;26.37;97.62
64354;BME280;50681;53.334;-6.536;2023-08-07T08:45:31;101419.78;;;25.25;100.00
64354;BME280;50681;53.334;-6.536;2023-08-07T08:48:03;101424.81;;;26.23;100.00
64354;BME280;50681;53.334;-6.536;2023-08-07T08:50:32;101420.41;;;26.87;94.79
64354;BME280;50681;53.334;-6.536;2023-08-07T08:52:59;101421.72;;;26.29;99.65
64354;BME280;50681;53.334;-6.536;2023-08-07T08:55:25;101417.56;;;25.34;100.00
64354;BME280;50681;53.334;-6.536;2023-08-07T08:57:52;101419.97;;;25.86;100.00
64354;BME280;50681;53.334;-6.536;2023-08-07T09:00:22;101422.84;;;25.97;98.80
64354;BME280;50681;53.334;-6.536;2023-08-07T09:02:51;101409.31;;;25.61;100.00
64354;BME280;50681;53.334;-6.536;2023-08-07T09:05:19;101419.41;;;26.34;99.62
64354;BME280;50681;53.334;-6.536;2023-08-07T09:07:45;101423.00;;;26.38;95.17
64354;BME280;50681;53.334;-6.536;2023-08-07T09:10:13;101418.41;;;25.89;100.00
64354;BME280;50681;53.334;-6.536;2023-08-07T09:12:40;101413.72;;;26.58;91.98
64354;BME280;50681;53.334;-6.536;2023-08-07T09:15:08;101411.16;;;27.17;92.31
64354;BME280;50681;53.334;-6.536;2023-08-07T09:17:39;101413.94;;;27.17;93.94
64354;BME280;50681;53.334;-6.536;2023-08-07T09:20:06;101406.34;;;27.10;92.21
64354;BME280;50681;53.334;-6.536;2023-08-07T09:22:36;101406.09;;;27.30;85.18
64354;BME280;50681;53.334;-6.536;2023-08-07T09:25:01;101401.72;;;27.85;83.71
64354;BME280;50681;53.334;-6.536;2023-08-07T09:27:27;101399.97;;;27.55;83.59
64354;BME280;50681;53.334;-6.536;2023-08-07T09:29:55;101405.22;;;28.59;80.70
64354;BME280;50681;53.334;-6.536;2023-08-07T09:32:22;101403.53;;;27.52;83.93
64354;BME280;50681;53.334;-6.536;2023-08-07T09:34:50;101405.75;;;26.52;88.56
64354;BME280;50681;53.334;-6.536;2023-08-07T09:37:16;101400.38;;;27.08;88.92
64354;BME280;50681;53.334;-6.536;2023-08-07T09:39:41;101396.72;;;26.97;89.58
64354;BME280;50681;53.334;-6.536;2023-08-07T09:42:14;101389.53;;;26.89;88.77
64354;BME280;50681;53.334;-6.536;2023-08-07T09:44:43;101387.81;;;27.18;87.56
64354;BME280;50681;53.334;-6.536;2023-08-07T09:47:14;101392.28;;;27.37;86.59
64354;BME280;50681;53.334;-6.536;2023-08-07T09:49:41;101385.16;;;26.46;85.67
64354;BME280;50681;53.334;-6.536;2023-08-07T09:52:07;101385.88;;;26.81;84.28
64354;BME280;50681;53.334;-6.536;2023-08-07T09:54:33;101385.31;;;26.26;90.71
64354;BME280;50681;53.334;-6.536;2023-08-07T09:56:59;101390.13;;;26.03;91.61
64354;BME280;50681;53.334;-6.536;2023-08-07T09:59:27;101376.53;;;25.90;91.74
64354;BME280;50681;53.334;-6.536;2023-08-07T10:01:53;101390.72;;;26.53;89.40
64354;BME280;50681;53.334;-6.536;2023-08-07T10:04:21;101390.53;;;26.35;91.77
64354;BME280;50681;53.334;-6.536;2023-08-07T10:06:47;101385.59;;;26.55;90.01
64354;BME280;50681;53.334;-6.536;2023-08-07T10:09:13;101388.44;;;25.94;91.98
64354;BME280;50681;53.334;-6.536;2023-08-07T10:11:38;101375.59;;;25.79;92.53
64354;BME280;50681;53.334;-6.536;2023-08-07T10:14:05;101371.56;;;25.73;93.09
64354;BME280;50681;53.334;-6.536;2023-08-07T10:16:31;101380.75;;;25.80;93.91
64354;BME280;50681;53.334;-6.536;2023-08-07T10:18:57;101371.31;;;25.31;99.66
64354;BME280;50681;53.334;-6.536;2023-08-07T10:21:23;101373.31;;;25.07;100.00
64354;BME280;50681;53.334;-6.536;2023-08-07T10:23:52;101374.88;;;25.55;100.00
64354;BME280;50681;53.334;-6.536;2023-08-07T10:26:19;101368.38;;;25.20;99.73
64354;BME280;50681;53.334;-6.536;2023-08-07T10:28:46;101372.41;;;25.27;100.00
64354;BME280;50681;53.334;-6.536;2023-08-07T10:31:16;101375.88;;;24.73;100.00
64354;BME280;50681;53.334;-6.536;2023-08-07T10:33:42;101375.47;;;24.32;100.00
64354;BME280;50681;53.334;-6.536;2023-08-07T10:36:09;101368.84;;;24.17;100.00
64354;BME280;50681;53.334;-6.536;2023-08-07T10:38:35;101375.50;;;24.75;100.00
64354;BME280;50681;53.334;-6.536;2023-08-07T10:41:07;101373.38;;;24.88;100.00
64354;BME280;50681;53.334;-6.536;2023-08-07T10:43:42;101373.13;;;24.73;100.00
64354;BME280;50681;53.334;-6.536;2023-08-07T10:46:20;101375.50;;;24.75;100.00
64354;BME280;50681;53.334;-6.536;2023-08-07T10:48:54;101374.16;;;25.12;100.00
64354;BME280;50681;53.334;-6.536;2023-08-07T10:51:28;101381.59;;;25.07;100.00
64354;BME280;50681;53.334;-6.536;2023-08-07T10:53:54;101371.28;;;25.04;100.00
64354;BME280;50681;53.334;-6.536;2023-08-07T10:56:35;101365.78;;;25.31;99.19
64354;BME280;50681;53.334;-6.536;2023-08-07T10:59:12;101366.78;;;25.19;98.48
64354;BME280;50681;53.334;-6.536;2023-08-07T11:04:08;101375.84;;;25.70;98.93
64354;BME280;50681;53.334;-6.536;2023-08-07T11:06:35;101377.00;;;25.65;95.97
64354;BME280;50681;53.334;-6.536;2023-08-07T11:09:04;101372.09;;;25.55;96.96
64354;BME280;50681;53.334;-6.536;2023-08-07T11:11:41;101369.53;;;25.43;97.12
64354;BME280;50681;53.334;-6.536;2023-08-07T11:14:08;101369.78;;;24.64;100.00
64354;BME280;50681;53.334;-6.536;2023-08-07T11:16:34;101368.50;;;24.81;100.00
64354;BME280;50681;53.334;-6.536;2023-08-07T11:19:00;101365.94;;;24.92;100.00
64354;BME280;50681;53.334;-6.536;2023-08-07T11:21:26;101358.06;;;25.67;98.72
64354;BME280;50681;53.334;-6.536;2023-08-07T11:23:51;101362.72;;;25.90;97.78
64354;BME280;50681;53.334;-6.536;2023-08-07T11:26:17;101351.50;;;26.13;95.65
64354;BME280;50681;53.334;-6.536;2023-08-07T11:28:47;101345.91;;;26.40;95.07
64354;BME280;50681;53.334;-6.536;2023-08-07T11:31:12;101346.06;;;26.17;94.72
64354;BME280;50681;53.334;-6.536;2023-08-07T11:33:38;101347.22;;;26.50;94.00
64354;BME280;50681;53.334;-6.536;2023-08-07T11:36:13;101329.78;;;26.91;90.41
64354;BME280;50681;53.334;-6.536;2023-08-07T11:38:43;101335.38;;;25.85;97.41
64354;BME280;50681;53.334;-6.536;2023-08-07T11:41:11;101336.53;;;26.15;95.05
64354;BME280;50681;53.334;-6.536;2023-08-07T11:43:37;101329.00;;;26.49;92.27
64354;BME280;50681;53.334;-6.536;2023-08-07T11:46:07;101321.97;;;26.59;85.61
64354;BME280;50681;53.334;-6.536;2023-08-07T11:48:35;101316.94;;;25.66;86.18
64354;BME280;50681;53.334;-6.536;2023-08-07T11:51:02;101319.13;;;26.52;84.15
64354;BME280;50681;53.334;-6.536;2023-08-07T11:53:31;101315.44;;;26.37;82.30
64354;BME280;50681;53.334;-6.536;2023-08-07T11:55:59;101313.00;;;25.67;83.70
64354;BME280;50681;53.334;-6.536;2023-08-07T11:58:27;101304.44;;;26.44;83.21
64354;BME280;50681;53.334;-6.536;2023-08-07T12:00:53;101307.38;;;27.11;81.21
64354;BME280;50681;53.334;-6.536;2023-08-07T12:03:24;101292.34;;;27.12;79.21
64354;BME280;50681;53.334;-6.536;2023-08-07T12:05:51;101303.00;;;27.10;80.84
64354;BME280;50681;53.334;-6.536;2023-08-07T12:08:16;101301.25;;;27.43;78.90
64354;BME280;50681;53.334;-6.536;2023-08-07T12:10:42;101301.75;;;27.00;76.35
64354;BME280;50681;53.334;-6.536;2023-08-07T12:13:12;101297.25;;;27.37;77.30
64354;BME280;50681;53.334;-6.536;2023-08-07T12:15:37;101296.78;;;26.75;80.94
64354;BME280;50681;53.334;-6.536;2023-08-07T12:18:03;101294.53;;;26.88;78.07
64354;BME280;50681;53.334;-6.536;2023-08-07T12:20:28;101300.66;;;25.91;74.79
64354;BME280;50681;53.334;-6.536;2023-08-07T12:22:54;101280.28;;;26.90;75.37
64354;BME280;50681;53.334;-6.536;2023-08-07T12:25:20;101292.25;;;26.56;76.11
64354;BME280;50681;53.334;-6.536;2023-08-07T12:27:45;101298.25;;;25.86;78.54
64354;BME280;50681;53.334;-6.536;2023-08-07T12:30:13;101289.59;;;25.91;78.92
64354;BME280;50681;53.334;-6.536;2023-08-07T12:32:38;101290.09;;;26.35;78.57
64354;BME280;50681;53.334;-6.536;2023-08-07T12:35:04;101289.22;;;26.27;80.19
64354;BME280;50681;53.334;-6.536;2023-08-07T12:37:33;101290.34;;;25.88;81.73